Time;durP1;ratioP1;P1;durP2;ratioP2;P2;SDS_P1;SDS_P2;PMS_P1;PMS_P2;Temp;Humidity;BMP_temperature;BMP_pressure;BME280_temperature;BME280_humidity;BME280_pressure;Samples;Min_cycle;Max_cycle;Signal;HPM_P1;HPM_P2
2021/08/16 00:00:34;;;;;;;2.75;1.42;;;;;;;;;;2089681;28;20025;-82
2021/08/16 00:01:53;;;;;;;4.97;1.80;;;;;;;;;;2093157;28;20025;-81
2021/08/16 00:03:12;;;;;;;4.65;1.58;;;;;;;;;;2088604;28;20021;-82
2021/08/16 00:04:31;;;;;;;4.63;1.85;;;;;;;;;;2087044;28;20029;-80
2021/08/16 00:05:50;;;;;;;5.22;1.88;;;;;;;;;;2091601;28;20377;-82
2021/08/16 00:07:09;;;;;;;11.07;2.13;;;;;;;;;;2092377;28;20021;-81
2021/08/16 00:08:28;;;;;;;5.18;1.23;;;;;;;;;;2094303;28;20051;-80
2021/08/16 00:09:47;;;;;;;5.22;1.40;;;;;;;;;;2087746;28;20025;-81
2021/08/16 00:11:05;;;;;;;5.22;1.15;;;;;;;;;;2092106;28;20057;-81
2021/08/16 00:12:24;;;;;;;1.65;1.30;;;;;;;;;;2094229;28;20024;-81
2021/08/16 00:13:43;;;;;;;3.78;1.40;;;;;;;;;;2091160;28;20434;-81
2021/08/16 00:15:02;;;;;;;2.10;1.00;;;;;;;;;;2088124;28;20473;-81
2021/08/16 00:16:21;;;;;;;4.28;1.50;;;;;;;;;;2090958;28;20508;-82
2021/08/16 00:17:40;;;;;;;3.65;1.60;;;;;;;;;;2087703;28;20021;-81
2021/08/16 00:18:59;;;;;;;4.65;1.65;;;;;;;;;;2086329;28;20021;-81
2021/08/16 00:20:17;;;;;;;6.72;1.30;;;;;;;;;;2087416;28;20427;-82
2021/08/16 00:21:36;;;;;;;5.10;1.38;;;;;;;;;;2085921;28;20143;-82
2021/08/16 00:22:55;;;;;;;6.20;1.80;;;;;;;;;;2086198;28;20489;-81
2021/08/16 00:24:14;;;;;;;4.47;1.75;;;;;;;;;;2090874;28;20033;-82
2021/08/16 00:25:33;;;;;;;4.35;1.65;;;;;;;;;;2092901;28;20115;-81
2021/08/16 00:26:53;;;;;;;1.67;1.23;;;;;;;;;;2093395;28;20024;-81
2021/08/16 00:28:12;;;;;;;5.90;1.73;;;;;;;;;;2084440;28;20018;-82
2021/08/16 00:29:31;;;;;;;4.22;1.17;;;;;;;;;;2093463;28;20021;-82
2021/08/16 00:30:50;;;;;;;3.67;1.15;;;;;;;;;;2086908;28;20025;-81
2021/08/16 00:32:09;;;;;;;3.30;1.23;;;;;;;;;;2093184;28;20041;-82
2021/08/16 00:33:28;;;;;;;2.15;1.33;;;;;;;;;;2090062;28;20411;-82
2021/08/16 00:34:47;;;;;;;4.63;1.60;;;;;;;;;;2098819;28;20032;-81
2021/08/16 00:36:06;;;;;;;4.22;1.70;;;;;;;;;;2091941;28;20044;-82
2021/08/16 00:37:24;;;;;;;3.15;1.48;;;;;;;;;;2086527;28;20085;-82
2021/08/16 00:38:43;;;;;;;5.57;1.67;;;;;;;;;;2088327;28;20028;-82
2021/08/16 00:40:02;;;;;;;2.70;1.20;;;;;;;;;;2087258;28;20028;-81
2021/08/16 00:41:21;;;;;;;4.70;1.20;;;;;;;;;;2088152;28;20108;-82
2021/08/16 00:42:40;;;;;;;2.78;1.25;;;;;;;;;;2089659;28;20028;-82
2021/08/16 00:44:00;;;;;;;3.28;1.70;;;;;;;;;;2092165;28;20024;-81
2021/08/16 00:45:19;;;;;;;3.58;1.10;;;;;;;;;;2089014;28;20096;-82
2021/08/16 00:46:38;;;;;;;6.00;1.58;;;;;;;;;;2088583;28;20029;-82
2021/08/16 00:47:57;;;;;;;3.88;1.48;;;;;;;;;;2089435;28;20033;-82
2021/08/16 00:49:16;;;;;;;2.55;1.23;;;;;;;;;;2091830;28;20064;-81
2021/08/16 00:50:35;;;;;;;4.72;1.42;;;;;;;;;;2089814;28;20028;-81
2021/08/16 00:51:54;;;;;;;5.45;1.65;;;;;;;;;;2085490;28;20033;-83
2021/08/16 00:53:13;;;;;;;3.95;1.33;;;;;;;;;;2089656;28;20064;-82
2021/08/16 00:54:33;;;;;;;4.70;1.55;;;;;;;;;;2088570;28;20033;-81
2021/08/16 00:55:52;;;;;;;5.78;1.60;;;;;;;;;;2087801;28;20108;-82
2021/08/16 00:57:11;;;;;;;4.88;1.58;;;;;;;;;;2087328;28;20025;-81
2021/08/16 00:58:30;;;;;;;4.00;1.45;;;;;;;;;;2089034;28;20111;-82
2021/08/16 00:59:49;;;;;;;4.10;1.60;;;;;;;;;;2091086;28;20036;-81
2021/08/16 01:01:09;;;;;;;3.58;1.33;;;;;;;;;;2098016;28;20024;-82
2021/08/16 01:02:29;;;;;;;2.42;1.70;;;;;;;;;;2090752;28;20021;-82
2021/08/16 01:03:48;;;;;;;5.70;1.63;;;;;;;;;;2090391;28;20037;-81
2021/08/16 01:05:08;;;;;;;3.17;1.33;;;;;;;;;;2087683;28;20025;-84
2021/08/16 01:06:27;;;;;;;6.38;1.38;;;;;;;;;;2095766;28;20020;-83
2021/08/16 01:07:47;;;;;;;3.72;1.40;;;;;;;;;;2092707;28;20107;-83
2021/08/16 01:09:06;;;;;;;2.80;1.58;;;;;;;;;;2092429;28;20028;-82
2021/08/16 01:10:30;;;;;;;4.57;1.42;;;;;;;;;;2094798;28;20496;-83
2021/08/16 01:11:49;;;;;;;6.05;1.90;;;;;;;;;;2088424;28;20484;-82
2021/08/16 01:13:09;;;;;;;3.25;1.30;;;;;;;;;;2084651;28;20040;-83
2021/08/16 01:14:28;;;;;;;4.72;1.42;;;;;;;;;;2095554;28;20705;-83
2021/08/16 01:15:58;;;;;;;4.93;1.33;;;;;;;;;;2092996;28;20045;-83
2021/08/16 01:17:18;;;;;;;8.55;1.80;;;;;;;;;;2088300;28;20029;-82
2021/08/16 01:18:37;;;;;;;4.22;1.40;;;;;;;;;;2083797;28;20108;-83
2021/08/16 01:19:56;;;;;;;2.95;1.40;;;;;;;;;;2082074;28;20037;-83
2021/08/16 01:21:16;;;;;;;3.65;1.55;;;;;;;;;;2089973;28;20029;-83
2021/08/16 01:22:35;;;;;;;4.95;1.70;;;;;;;;;;2084144;28;20029;-83
2021/08/16 01:23:54;;;;;;;5.70;1.30;;;;;;;;;;2090031;28;20021;-82
2021/08/16 01:25:13;;;;;;;7.15;2.03;;;;;;;;;;2090717;28;20392;-84
2021/08/16 01:26:35;;;;;;;2.80;1.30;;;;;;;;;;2091368;28;20416;-82
2021/08/16 01:27:56;;;;;;;3.28;1.27;;;;;;;;;;2088913;28;20139;-83
2021/08/16 01:29:19;;;;;;;2.20;1.20;;;;;;;;;;2091740;28;20021;-82
2021/08/16 01:30:38;;;;;;;2.53;1.33;;;;;;;;;;2093913;28;20033;-81
2021/08/16 01:31:58;;;;;;;1.92;1.35;;;;;;;;;;2089495;28;20488;-81
2021/08/16 01:33:17;;;;;;;4.00;1.48;;;;;;;;;;2091952;28;20024;-81
2021/08/16 01:34:36;;;;;;;3.22;1.30;;;;;;;;;;2086258;28;20413;-81
2021/08/16 01:35:55;;;;;;;5.30;1.85;;;;;;;;;;2093756;28;20108;-81
2021/08/16 01:37:15;;;;;;;4.70;1.77;;;;;;;;;;2094914;28;20060;-82
2021/08/16 01:38:36;;;;;;;1.30;1.20;;;;;;;;;;2090353;28;20064;-83
2021/08/16 01:39:54;;;;;;;5.13;1.70;;;;;;;;;;2086714;28;20032;-82
2021/08/16 01:41:13;;;;;;;5.68;1.48;;;;;;;;;;2084331;28;20119;-81
2021/08/16 01:42:32;;;;;;;3.92;1.55;;;;;;;;;;2087289;28;20021;-82
2021/08/16 01:43:51;;;;;;;2.97;1.50;;;;;;;;;;2094917;28;20016;-82
2021/08/16 01:45:10;;;;;;;4.53;1.58;;;;;;;;;;2093254;28;20033;-81
2021/08/16 01:46:29;;;;;;;3.50;1.58;;;;;;;;;;2091614;28;20017;-81
2021/08/16 01:47:48;;;;;;;6.07;1.42;;;;;;;;;;2089952;28;20049;-81
2021/08/16 01:49:08;;;;;;;1.95;1.80;;;;;;;;;;2093559;28;20021;-81
2021/08/16 01:50:27;;;;;;;1.92;1.48;;;;;;;;;;2094700;28;20068;-81
2021/08/16 01:51:47;;;;;;;4.82;1.83;;;;;;;;;;2091605;28;20082;-81
2021/08/16 01:53:06;;;;;;;4.38;1.40;;;;;;;;;;2093496;28;20032;-82
2021/08/16 01:54:25;;;;;;;3.40;1.50;;;;;;;;;;2088252;28;20036;-80
2021/08/16 01:55:44;;;;;;;3.55;1.60;;;;;;;;;;2089556;28;20395;-82
2021/08/16 01:57:03;;;;;;;7.38;1.60;;;;;;;;;;2091662;28;20033;-81
2021/08/16 01:58:22;;;;;;;4.32;1.50;;;;;;;;;;2094076;28;20029;-81
2021/08/16 01:59:41;;;;;;;5.57;1.92;;;;;;;;;;2091495;28;20028;-80
2021/08/16 02:01:00;;;;;;;3.47;1.88;;;;;;;;;;2089598;28;20017;-81
2021/08/16 02:02:19;;;;;;;7.82;1.92;;;;;;;;;;2091565;28;20041;-81
2021/08/16 02:03:38;;;;;;;2.17;1.35;;;;;;;;;;2093558;28;20029;-81
2021/08/16 02:04:57;;;;;;;3.20;1.45;;;;;;;;;;2094163;28;20077;-81
2021/08/16 02:06:16;;;;;;;6.43;1.52;;;;;;;;;;2093187;28;20044;-81
2021/08/16 02:07:35;;;;;;;2.83;1.60;;;;;;;;;;2093648;28;20024;-81
2021/08/16 02:08:55;;;;;;;4.18;1.52;;;;;;;;;;2089411;28;20401;-82
2021/08/16 02:10:14;;;;;;;3.47;1.40;;;;;;;;;;2095284;28;20159;-81
2021/08/16 02:11:33;;;;;;;3.88;1.63;;;;;;;;;;2090030;28;20026;-81
2021/08/16 02:12:51;;;;;;;4.50;1.65;;;;;;;;;;2090263;28;20037;-82
2021/08/16 02:14:11;;;;;;;2.45;1.63;;;;;;;;;;2088569;28;20032;-82
2021/08/16 02:15:30;;;;;;;5.63;1.83;;;;;;;;;;2089260;28;20025;-82
2021/08/16 02:16:51;;;;;;;6.00;1.30;;;;;;;;;;2090387;28;20025;-82
2021/08/16 02:18:10;;;;;;;11.40;1.95;;;;;;;;;;2089358;28;20380;-82
2021/08/16 02:19:29;;;;;;;4.97;1.50;;;;;;;;;;2091024;28;20389;-82
2021/08/16 02:20:48;;;;;;;5.32;1.40;;;;;;;;;;2095710;28;20484;-81
2021/08/16 02:22:07;;;;;;;2.38;1.55;;;;;;;;;;2089580;28;20044;-82
2021/08/16 02:23:26;;;;;;;7.20;1.73;;;;;;;;;;2092466;28;20140;-82
2021/08/16 02:24:45;;;;;;;5.60;1.98;;;;;;;;;;2092131;28;20064;-81
2021/08/16 02:26:04;;;;;;;4.68;1.48;;;;;;;;;;2092108;28;20093;-82
2021/08/16 02:27:23;;;;;;;3.67;1.52;;;;;;;;;;2085884;28;20068;-81
2021/08/16 02:28:42;;;;;;;3.78;1.55;;;;;;;;;;2089949;28;20461;-82
2021/08/16 02:30:01;;;;;;;3.53;1.90;;;;;;;;;;2089370;28;20384;-80
2021/08/16 02:31:23;;;;;;;4.05;1.35;;;;;;;;;;2087530;28;20025;-82
2021/08/16 02:32:43;;;;;;;3.95;1.80;;;;;;;;;;2088971;28;20473;-82
2021/08/16 02:34:02;;;;;;;4.00;1.60;;;;;;;;;;2088737;28;20025;-82
2021/08/16 02:35:21;;;;;;;5.50;1.60;;;;;;;;;;2085663;28;20025;-80
2021/08/16 02:36:40;;;;;;;7.28;1.63;;;;;;;;;;2086094;28;20017;-83
2021/08/16 02:37:59;;;;;;;4.05;1.77;;;;;;;;;;2094948;28;20468;-82
2021/08/16 02:39:18;;;;;;;6.40;1.92;;;;;;;;;;2086517;28;20021;-82
2021/08/16 02:40:40;;;;;;;4.07;1.70;;;;;;;;;;2094622;28;20025;-81
2021/08/16 02:41:59;;;;;;;3.10;1.90;;;;;;;;;;2084861;28;20033;-82
2021/08/16 02:43:18;;;;;;;5.22;1.73;;;;;;;;;;2090826;28;20033;-82
2021/08/16 02:44:36;;;;;;;7.85;2.03;;;;;;;;;;2089024;28;20479;-82
2021/08/16 02:45:55;;;;;;;5.07;1.80;;;;;;;;;;2086991;28;20029;-82
2021/08/16 02:47:16;;;;;;;4.03;1.67;;;;;;;;;;2088381;28;20025;-82
2021/08/16 02:48:35;;;;;;;4.15;1.33;;;;;;;;;;2091415;28;20037;-80
2021/08/16 02:49:54;;;;;;;5.75;2.10;;;;;;;;;;2094561;28;20024;-81
2021/08/16 02:51:13;;;;;;;4.68;2.05;;;;;;;;;;2094823;28;20478;-82
2021/08/16 02:52:33;;;;;;;5.68;1.85;;;;;;;;;;2094420;28;20056;-81
2021/08/16 02:53:52;;;;;;;9.80;2.08;;;;;;;;;;2093293;28;20021;-80
2021/08/16 02:55:11;;;;;;;5.28;1.95;;;;;;;;;;2084814;28;20049;-81
2021/08/16 02:56:30;;;;;;;4.18;1.60;;;;;;;;;;2091624;28;20029;-82
2021/08/16 02:57:49;;;;;;;2.80;1.40;;;;;;;;;;2092393;28;20025;-82
2021/08/16 02:59:08;;;;;;;6.28;1.90;;;;;;;;;;2086780;28;20028;-81
2021/08/16 03:00:26;;;;;;;5.40;1.90;;;;;;;;;;2089484;28;20028;-81
2021/08/16 03:01:45;;;;;;;3.13;1.60;;;;;;;;;;2094320;28;20061;-80
2021/08/16 03:03:04;;;;;;;3.30;1.67;;;;;;;;;;2095484;28;20024;-82
2021/08/16 03:04:24;;;;;;;3.15;1.77;;;;;;;;;;2092257;28;20021;-81
2021/08/16 03:05:43;;;;;;;5.50;1.77;;;;;;;;;;2091022;28;20396;-81
2021/08/16 03:07:02;;;;;;;4.70;1.80;;;;;;;;;;2091572;28;20440;-81
2021/08/16 03:08:21;;;;;;;3.08;1.80;;;;;;;;;;2089956;28;20496;-82
2021/08/16 03:09:40;;;;;;;5.07;1.90;;;;;;;;;;2093097;28;20029;-82
2021/08/16 03:10:59;;;;;;;3.60;1.77;;;;;;;;;;2087060;28;20061;-82
2021/08/16 03:12:18;;;;;;;6.20;2.03;;;;;;;;;;2092955;28;20033;-81
2021/08/16 03:13:37;;;;;;;6.65;1.60;;;;;;;;;;2091001;28;20024;-81
2021/08/16 03:14:56;;;;;;;5.78;1.52;;;;;;;;;;2092166;28;20033;-81
2021/08/16 03:16:15;;;;;;;4.55;1.70;;;;;;;;;;2088184;28;20508;-81
2021/08/16 03:17:34;;;;;;;3.33;1.67;;;;;;;;;;2086534;28;20025;-82
2021/08/16 03:18:53;;;;;;;5.47;1.95;;;;;;;;;;2085090;28;20028;-82
2021/08/16 03:20:12;;;;;;;4.18;1.52;;;;;;;;;;2086064;28;20037;-81
2021/08/16 03:21:31;;;;;;;3.50;1.95;;;;;;;;;;2089196;28;20029;-81
2021/08/16 03:22:50;;;;;;;3.72;1.88;;;;;;;;;;2085635;28;20020;-81
2021/08/16 03:24:09;;;;;;;3.03;1.70;;;;;;;;;;2086177;28;20022;-81
2021/08/16 03:25:28;;;;;;;3.40;1.70;;;;;;;;;;2084796;28;20060;-82
2021/08/16 03:26:47;;;;;;;2.83;1.80;;;;;;;;;;2090291;28;20026;-82
2021/08/16 03:28:06;;;;;;;4.35;1.98;;;;;;;;;;2088669;28;20025;-82
2021/08/16 03:29:25;;;;;;;3.65;1.48;;;;;;;;;;2088732;28;20025;-81
2021/08/16 03:30:47;;;;;;;4.30;1.80;;;;;;;;;;2091310;28;20024;-82
2021/08/16 03:32:06;;;;;;;2.55;1.88;;;;;;;;;;2088724;28;20033;-83
2021/08/16 03:33:26;;;;;;;3.33;1.80;;;;;;;;;;2093817;28;20088;-81
2021/08/16 03:34:45;;;;;;;1.85;1.65;;;;;;;;;;2085655;28;20033;-80
2021/08/16 03:36:05;;;;;;;5.47;2.00;;;;;;;;;;2089649;28;20115;-82
2021/08/16 03:37:23;;;;;;;2.92;1.60;;;;;;;;;;2094118;28;20052;-81
2021/08/16 03:38:42;;;;;;;5.47;2.00;;;;;;;;;;2097669;28;20447;-83
2021/08/16 03:40:02;;;;;;;1.83;1.60;;;;;;;;;;2090669;28;20022;-80
2021/08/16 03:41:21;;;;;;;3.33;1.80;;;;;;;;;;2095785;28;20484;-81
2021/08/16 03:42:40;;;;;;;5.28;1.80;;;;;;;;;;2089531;28;20025;-81
2021/08/16 03:43:59;;;;;;;5.18;1.75;;;;;;;;;;2090451;28;20416;-81
2021/08/16 03:45:21;;;;;;;4.60;2.00;;;;;;;;;;2088917;28;20025;-82
2021/08/16 03:46:40;;;;;;;2.70;1.75;;;;;;;;;;2089673;28;20029;-80
2021/08/16 03:47:59;;;;;;;2.75;1.80;;;;;;;;;;2092732;28;20063;-81
2021/08/16 03:49:18;;;;;;;4.57;1.90;;;;;;;;;;2094333;28;20080;-81
2021/08/16 03:50:37;;;;;;;4.47;1.98;;;;;;;;;;2092280;28;20029;-80
2021/08/16 03:51:55;;;;;;;5.68;2.33;;;;;;;;;;2090870;28;20112;-81
2021/08/16 03:53:15;;;;;;;5.10;2.03;;;;;;;;;;2090347;28;20034;-80
2021/08/16 03:54:33;;;;;;;5.75;2.10;;;;;;;;;;2092586;28;20029;-79
2021/08/16 03:55:52;;;;;;;6.80;1.98;;;;;;;;;;2093057;28;20045;-81
2021/08/16 03:57:11;;;;;;;6.88;2.38;;;;;;;;;;2093498;28;20633;-81
2021/08/16 03:58:30;;;;;;;3.40;2.00;;;;;;;;;;2090351;28;20032;-80
2021/08/16 03:59:49;;;;;;;11.18;2.38;;;;;;;;;;2090481;28;20123;-81
2021/08/16 04:01:09;;;;;;;3.17;1.90;;;;;;;;;;2086594;28;20017;-81
2021/08/16 04:02:28;;;;;;;5.05;2.60;;;;;;;;;;2084430;28;20459;-83
2021/08/16 04:03:49;;;;;;;4.93;2.58;;;;;;;;;;2095522;28;20025;-81
2021/08/16 04:05:29;;;;;;;3.95;1.98;;;;;;;;;;2092873;28;20017;-83
2021/08/16 04:06:49;;;;;;;4.53;2.08;;;;;;;;;;2093720;28;20096;-82
2021/08/16 04:08:08;;;;;;;8.30;2.17;;;;;;;;;;2085217;28;20017;-82
2021/08/16 04:09:27;;;;;;;6.97;2.40;;;;;;;;;;2089185;28;20103;-81
2021/08/16 04:10:46;;;;;;;5.57;2.20;;;;;;;;;;2088519;28;20025;-81
2021/08/16 04:12:05;;;;;;;4.15;2.00;;;;;;;;;;2087651;28;20029;-82
2021/08/16 04:13:24;;;;;;;4.47;1.85;;;;;;;;;;2091250;28;20025;-82
2021/08/16 04:14:43;;;;;;;7.55;2.50;;;;;;;;;;2087583;28;20021;-83
2021/08/16 04:16:02;;;;;;;2.83;1.90;;;;;;;;;;2086798;28;20042;-82
2021/08/16 04:19:01;;;;;;;6.57;2.38;;;;;;;;;;2084681;28;21114;-83
2021/08/16 04:20:19;;;;;;;9.38;2.70;;;;;;;;;;2087527;28;20052;-82
2021/08/16 04:21:38;;;;;;;7.00;2.30;;;;;;;;;;2095898;28;20024;-82
2021/08/16 04:23:00;;;;;;;16.55;2.78;;;;;;;;;;2092688;28;20107;-82
2021/08/16 04:24:19;;;;;;;6.57;1.80;;;;;;;;;;2087118;28;20427;-82
2021/08/16 04:25:38;;;;;;;9.15;2.25;;;;;;;;;;2084901;28;21477;-82
2021/08/16 04:26:57;;;;;;;6.82;2.63;;;;;;;;;;2089330;28;20079;-82
2021/08/16 04:28:16;;;;;;;5.60;2.10;;;;;;;;;;2091593;28;20052;-83
2021/08/16 04:29:45;;;;;;;;;;;;;;;;;;;;;
2021/08/16 04:31:05;;;;;;;7.10;2.17;;;;;;;;;;2090223;28;20022;-84
2021/08/16 04:32:27;;;;;;;9.65;3.20;;;;;;;;;;2090673;28;20041;-82
2021/08/16 04:33:49;;;;;;;3.30;2.00;;;;;;;;;;2086839;28;20033;-82
2021/08/16 04:35:08;;;;;;;4.32;2.03;;;;;;;;;;2093838;28;20024;-81
2021/08/16 04:36:28;;;;;;;4.60;2.10;;;;;;;;;;2089210;28;20029;-83
2021/08/16 04:38:02;;;;;;;;;;;;;;;;;;;;;
2021/08/16 04:39:22;;;;;;;6.47;2.42;;;;;;;;;;2089202;28;20087;-81
2021/08/16 04:40:41;;;;;;;3.22;1.98;;;;;;;;;;2091643;28;20029;-81
2021/08/16 04:42:04;;;;;;;5.85;1.95;;;;;;;;;;2093285;28;20111;-81
2021/08/16 04:43:23;;;;;;;5.25;2.20;;;;;;;;;;2091251;28;20021;-86
2021/08/16 04:44:45;;;;;;;3.63;1.90;;;;;;;;;;2093912;28;20036;-83
2021/08/16 04:46:04;;;;;;;4.65;2.08;;;;;;;;;;2086863;28;20089;-84
2021/08/16 04:47:22;;;;;;;3.60;2.08;;;;;;;;;;2084294;28;20025;-84
2021/08/16 04:48:41;;;;;;;8.35;2.22;;;;;;;;;;2086812;28;20041;-82
2021/08/16 04:50:00;;;;;;;2.75;2.15;;;;;;;;;;2088325;28;20586;-82
2021/08/16 04:51:19;;;;;;;7.22;1.95;;;;;;;;;;2087260;28;20540;-83
2021/08/16 04:52:41;;;;;;;5.45;1.85;;;;;;;;;;2086352;28;20066;-82
2021/08/16 04:54:01;;;;;;;4.47;1.70;;;;;;;;;;2091872;28;20025;-82
2021/08/16 04:55:23;;;;;;;6.50;2.17;;;;;;;;;;2089884;28;20029;-82
2021/08/16 04:56:43;;;;;;;6.75;2.03;;;;;;;;;;2090783;28;20025;-84
2021/08/16 04:58:06;;;;;;;6.35;2.30;;;;;;;;;;2091150;28;20029;-88
2021/08/16 04:59:32;;;;;;;;;;;;;;;;;;2088985;28;20064;-82
2021/08/16 05:00:59;;;;;;;5.45;2.38;;;;;;;;;;2090727;28;19905;-81
2021/08/16 05:02:18;;;;;;;3.47;2.08;;;;;;;;;;2084112;28;20076;-80
2021/08/16 05:03:46;;;;;;;5.45;2.15;;;;;;;;;;2088457;28;20029;-81
2021/08/16 05:05:10;;;;;;;5.15;2.17;;;;;;;;;;2089501;28;20033;-80
2021/08/16 05:06:30;;;;;;;6.72;2.08;;;;;;;;;;2095710;28;20536;-82
2021/08/16 05:07:53;;;;;;;9.90;2.10;;;;;;;;;;2091865;28;20484;-86
2021/08/16 05:09:12;;;;;;;3.67;1.83;;;;;;;;;;2091486;28;20025;-81
2021/08/16 05:10:31;;;;;;;4.22;2.05;;;;;;;;;;2097309;28;20029;-81
2021/08/16 05:11:50;;;;;;;3.78;1.83;;;;;;;;;;2092827;28;20037;-79
2021/08/16 05:13:09;;;;;;;4.95;2.13;;;;;;;;;;2090923;28;20028;-81
2021/08/16 05:14:27;;;;;;;7.10;2.00;;;;;;;;;;2098379;28;20111;-80
2021/08/16 05:15:46;;;;;;;3.80;1.92;;;;;;;;;;2095460;28;20513;-80
2021/08/16 05:17:05;;;;;;;6.63;1.85;;;;;;;;;;2091806;28;20025;-81
2021/08/16 05:18:24;;;;;;;4.95;1.50;;;;;;;;;;2090772;28;20029;-82
2021/08/16 05:19:43;;;;;;;3.10;1.80;;;;;;;;;;2088381;28;20028;-80
2021/08/16 05:21:02;;;;;;;6.90;2.15;;;;;;;;;;2094876;28;20412;-86
2021/08/16 05:22:21;;;;;;;4.32;1.80;;;;;;;;;;2091703;28;20449;-82
2021/08/16 05:23:40;;;;;;;4.43;2.10;;;;;;;;;;2094380;28;20029;-82
2021/08/16 05:24:59;;;;;;;3.45;2.00;;;;;;;;;;2094875;28;20025;-82
2021/08/16 05:26:18;;;;;;;3.80;2.05;;;;;;;;;;2092400;28;20025;-83
2021/08/16 05:27:36;;;;;;;6.03;2.05;;;;;;;;;;2086822;28;20020;-82
2021/08/16 05:28:55;;;;;;;4.13;1.95;;;;;;;;;;2088647;28;20017;-83
2021/08/16 05:30:15;;;;;;;5.18;2.00;;;;;;;;;;2087240;28;20017;-81
2021/08/16 05:31:34;;;;;;;5.38;1.83;;;;;;;;;;2096880;28;20021;-80
2021/08/16 05:32:53;;;;;;;4.90;1.88;;;;;;;;;;2090648;28;20037;-80
2021/08/16 05:34:11;;;;;;;4.82;1.73;;;;;;;;;;2089971;28;20060;-80
2021/08/16 05:35:30;;;;;;;8.48;2.50;;;;;;;;;;2087200;28;20088;-80
2021/08/16 05:36:49;;;;;;;6.78;2.25;;;;;;;;;;2089624;28;20485;-81
2021/08/16 05:38:09;;;;;;;5.45;2.30;;;;;;;;;;2085761;28;20161;-82
2021/08/16 05:39:28;;;;;;;5.93;2.55;;;;;;;;;;2093252;28;20024;-82
2021/08/16 05:40:47;;;;;;;3.95;1.77;;;;;;;;;;2094973;28;20025;-82
2021/08/16 05:42:06;;;;;;;4.72;2.08;;;;;;;;;;2092810;28;20454;-81
2021/08/16 05:43:25;;;;;;;3.90;1.80;;;;;;;;;;2087996;28;20866;-83
2021/08/16 05:44:43;;;;;;;7.55;1.98;;;;;;;;;;2085041;28;20025;-82
2021/08/16 05:46:02;;;;;;;7.45;2.10;;;;;;;;;;2086470;28;20033;-84
2021/08/16 05:47:22;;;;;;;5.40;2.22;;;;;;;;;;2093004;28;20029;-80
2021/08/16 05:48:47;;;;;;;9.07;1.92;;;;;;;;;;2087905;28;20045;-81
2021/08/16 05:50:06;;;;;;;3.17;1.85;;;;;;;;;;2091205;28;20025;-83
2021/08/16 05:51:25;;;;;;;4.47;2.20;;;;;;;;;;2091349;28;20029;-80
2021/08/16 05:52:44;;;;;;;4.03;1.85;;;;;;;;;;2087086;28;20033;-81
2021/08/16 05:54:03;;;;;;;3.47;2.13;;;;;;;;;;2090561;28;20421;-84
2021/08/16 05:55:22;;;;;;;6.00;2.30;;;;;;;;;;2090332;28;20021;-82
2021/08/16 05:56:41;;;;;;;5.05;1.70;;;;;;;;;;2094025;28;20025;-82
2021/08/16 05:58:00;;;;;;;7.75;2.13;;;;;;;;;;2091854;28;20026;-82
2021/08/16 05:59:19;;;;;;;9.88;2.47;;;;;;;;;;2090063;28;20059;-81
2021/08/16 06:00:39;;;;;;;6.10;2.17;;;;;;;;;;2093309;28;20480;-82
2021/08/16 06:01:58;;;;;;;7.75;2.35;;;;;;;;;;2091944;28;20029;-81
2021/08/16 06:03:17;;;;;;;3.25;1.80;;;;;;;;;;2090760;28;20030;-85
2021/08/16 06:04:35;;;;;;;10.35;2.58;;;;;;;;;;2090480;28;20445;-84
2021/08/16 06:05:54;;;;;;;7.90;2.35;;;;;;;;;;2090159;28;20419;-79
2021/08/16 06:07:13;;;;;;;9.23;2.22;;;;;;;;;;2092127;28;20037;-81
2021/08/16 06:08:32;;;;;;;6.90;1.98;;;;;;;;;;2089658;28;20591;-81
2021/08/16 06:09:51;;;;;;;5.13;2.50;;;;;;;;;;2088567;28;20435;-81
2021/08/16 06:11:10;;;;;;;6.97;2.00;;;;;;;;;;2083580;28;20032;-82
2021/08/16 06:12:28;;;;;;;11.45;2.42;;;;;;;;;;2086241;28;20099;-81
2021/08/16 06:13:47;;;;;;;4.07;2.28;;;;;;;;;;2082768;28;20034;-82
2021/08/16 06:15:08;;;;;;;10.25;2.70;;;;;;;;;;2088627;28;20025;-82
2021/08/16 06:16:27;;;;;;;5.68;2.30;;;;;;;;;;2090748;28;20053;-81
2021/08/16 06:17:46;;;;;;;6.40;2.08;;;;;;;;;;2090828;28;20064;-81
2021/08/16 06:19:04;;;;;;;8.52;2.78;;;;;;;;;;2090558;28;20524;-82
2021/08/16 06:20:23;;;;;;;12.48;2.33;;;;;;;;;;2092379;28;20468;-82
2021/08/16 06:21:43;;;;;;;5.25;2.10;;;;;;;;;;2087793;28;20026;-81
2021/08/16 06:23:02;;;;;;;10.95;2.58;;;;;;;;;;2088799;28;20032;-83
2021/08/16 06:24:21;;;;;;;3.55;2.13;;;;;;;;;;2090256;28;20496;-83
2021/08/16 06:25:40;;;;;;;5.20;2.67;;;;;;;;;;2087793;28;20041;-83
2021/08/16 06:26:59;;;;;;;9.63;2.25;;;;;;;;;;2089552;28;20025;-84
2021/08/16 06:28:17;;;;;;;5.00;2.00;;;;;;;;;;2094893;28;20025;-82
2021/08/16 06:29:36;;;;;;;3.05;2.42;;;;;;;;;;2091472;28;20376;-84
2021/08/16 06:30:56;;;;;;;6.45;2.70;;;;;;;;;;2090413;28;20025;-86
2021/08/16 06:32:15;;;;;;;10.73;2.88;;;;;;;;;;2087780;28;20021;-82
2021/08/16 06:33:38;;;;;;;6.22;2.20;;;;;;;;;;2087966;28;20389;-83
2021/08/16 06:34:56;;;;;;;;;;;;;;;;;;2091649;28;20036;-84
2021/08/16 06:36:18;;;;;;;7.13;2.70;;;;;;;;;;2086984;28;19905;-83
2021/08/16 06:37:37;;;;;;;7.90;3.35;;;;;;;;;;2085393;28;20037;-84
2021/08/16 06:38:55;;;;;;;6.45;2.65;;;;;;;;;;2092939;28;20116;-84
2021/08/16 06:40:14;;;;;;;5.90;2.50;;;;;;;;;;2087234;28;20017;-83
2021/08/16 06:41:34;;;;;;;8.35;2.70;;;;;;;;;;2097236;28;20388;-83
2021/08/16 06:42:53;;;;;;;9.32;3.13;;;;;;;;;;2084695;28;20021;-83
2021/08/16 06:44:11;;;;;;;8.73;2.90;;;;;;;;;;2084463;28;20026;-83
2021/08/16 06:45:31;;;;;;;7.07;2.83;;;;;;;;;;2088750;28;20025;-83
2021/08/16 06:46:50;;;;;;;4.72;2.60;;;;;;;;;;2085697;28;20025;-82
2021/08/16 06:48:09;;;;;;;6.07;2.53;;;;;;;;;;2086197;28;20088;-83
2021/08/16 06:49:28;;;;;;;4.63;2.63;;;;;;;;;;2090519;28;20033;-83
2021/08/16 06:50:47;;;;;;;7.35;2.83;;;;;;;;;;2090881;28;20021;-82
2021/08/16 06:52:09;;;;;;;5.95;2.70;;;;;;;;;;2093375;28;20517;-83
2021/08/16 06:53:28;;;;;;;9.25;3.35;;;;;;;;;;2089337;28;20026;-83
2021/08/16 06:54:47;;;;;;;8.48;3.10;;;;;;;;;;2090782;28;20032;-83
2021/08/16 06:56:06;;;;;;;6.20;2.88;;;;;;;;;;2090119;28;20037;-81
2021/08/16 06:57:27;;;;;;;13.95;3.10;;;;;;;;;;2090001;28;20032;-81
2021/08/16 06:58:46;;;;;;;3.85;2.83;;;;;;;;;;2085083;28;20029;-81
2021/08/16 07:00:05;;;;;;;7.15;2.63;;;;;;;;;;2088640;28;20037;-81
2021/08/16 07:01:25;;;;;;;5.93;2.88;;;;;;;;;;2083540;28;21408;-85
2021/08/16 07:02:44;;;;;;;5.43;2.78;;;;;;;;;;2087313;28;20060;-85
2021/08/16 07:04:03;;;;;;;5.57;2.72;;;;;;;;;;2091934;28;20385;-83
2021/08/16 07:05:22;;;;;;;6.25;2.83;;;;;;;;;;2090651;28;20064;-83
2021/08/16 07:06:41;;;;;;;10.35;2.55;;;;;;;;;;2099867;28;20032;-84
2021/08/16 07:08:00;;;;;;;5.78;2.80;;;;;;;;;;2089779;28;20111;-85
2021/08/16 07:09:19;;;;;;;7.93;3.08;;;;;;;;;;2084299;28;20021;-84
2021/08/16 07:10:39;;;;;;;6.70;2.92;;;;;;;;;;2089559;28;20361;-84
2021/08/16 07:11:59;;;;;;;4.10;2.38;;;;;;;;;;2091897;28;20385;-84
2021/08/16 07:13:18;;;;;;;5.97;2.65;;;;;;;;;;2088155;28;20033;-84
2021/08/16 07:14:37;;;;;;;13.50;3.08;;;;;;;;;;2088784;28;20022;-84
2021/08/16 07:15:56;;;;;;;8.05;2.70;;;;;;;;;;2089425;28;20100;-85
2021/08/16 07:17:15;;;;;;;7.43;3.05;;;;;;;;;;2083714;28;20103;-83
2021/08/16 07:18:34;;;;;;;9.70;3.60;;;;;;;;;;2089716;28;20033;-84
2021/08/16 07:19:54;;;;;;;6.13;2.90;;;;;;;;;;2090007;28;20037;-84
2021/08/16 07:21:13;;;;;;;5.30;2.92;;;;;;;;;;2090071;28;20045;-84
2021/08/16 07:22:31;;;;;;;10.73;3.22;;;;;;;;;;2088007;28;20495;-83
2021/08/16 07:23:51;;;;;;;8.27;2.80;;;;;;;;;;2086704;28;20025;-85
2021/08/16 07:25:10;;;;;;;7.82;2.85;;;;;;;;;;2090685;28;20408;-84
2021/08/16 07:26:29;;;;;;;3.25;2.95;;;;;;;;;;2088455;28;20021;-85
2021/08/16 07:27:48;;;;;;;9.43;3.17;;;;;;;;;;2091136;28;20024;-85
2021/08/16 07:29:07;;;;;;;6.60;2.70;;;;;;;;;;2089456;28;20033;-82
2021/08/16 07:30:26;;;;;;;5.07;3.33;;;;;;;;;;2095271;28;20029;-82
2021/08/16 07:31:44;;;;;;;8.30;2.90;;;;;;;;;;2091579;28;20060;-85
2021/08/16 07:33:04;;;;;;;6.38;3.20;;;;;;;;;;2091694;28;20488;-83
2021/08/16 07:34:23;;;;;;;5.63;3.15;;;;;;;;;;2087036;28;20029;-84
2021/08/16 07:35:42;;;;;;;5.85;3.40;;;;;;;;;;2089367;28;20057;-85
2021/08/16 07:37:00;;;;;;;10.00;3.42;;;;;;;;;;2083542;28;20060;-82
2021/08/16 07:38:19;;;;;;;7.28;3.15;;;;;;;;;;2086132;28;20104;-84
2021/08/16 07:39:39;;;;;;;3.05;2.75;;;;;;;;;;2083472;28;20037;-79
2021/08/16 07:40:58;;;;;;;6.47;2.90;;;;;;;;;;2089371;28;20021;-84
2021/08/16 07:42:18;;;;;;;10.02;3.08;;;;;;;;;;2090926;28;20037;-85
2021/08/16 07:43:37;;;;;;;7.25;3.05;;;;;;;;;;2086798;28;20042;-85
2021/08/16 07:44:56;;;;;;;8.07;3.03;;;;;;;;;;2087896;28;20017;-84
2021/08/16 07:46:16;;;;;;;6.88;3.28;;;;;;;;;;2093445;28;20021;-85
2021/08/16 07:47:35;;;;;;;4.95;2.78;;;;;;;;;;2093980;28;20022;-84
2021/08/16 07:48:54;;;;;;;7.80;3.45;;;;;;;;;;2093611;28;20120;-84
2021/08/16 07:50:13;;;;;;;7.50;2.83;;;;;;;;;;2093466;28;20037;-83
2021/08/16 07:51:32;;;;;;;8.45;2.97;;;;;;;;;;2089686;28;20025;-83
2021/08/16 07:52:51;;;;;;;14.75;3.45;;;;;;;;;;2089011;28;20582;-83
2021/08/16 07:54:10;;;;;;;7.45;3.08;;;;;;;;;;2087140;28;20049;-85
2021/08/16 07:55:29;;;;;;;7.88;2.72;;;;;;;;;;2088977;28;20029;-85
2021/08/16 07:56:50;;;;;;;8.43;3.13;;;;;;;;;;2088244;28;20029;-85
2021/08/16 07:58:08;;;;;;;9.25;3.47;;;;;;;;;;2090209;28;20021;-86
2021/08/16 07:59:27;;;;;;;7.25;3.05;;;;;;;;;;2092628;28;20017;-85